Portada
METAR-TAF:

METAR-TAF

Aeroports :

Besiers, França

latitud: 43-19N, longitud: 003-21E, altitud: 17 m

Observació

L'informe es va fer fa 35 minuts, a les 10:00 UTC
Vent 9 kt del Oest, variant entre Oest/Sud-Oest i Nord/Nord-Oest
Temperatura 31°C
Humitat 31%
Pressió 1013 hPa
Visibilitat 10 km o més
sense núvols per sota de 1500 mi sense presència de cumulonimbus.

METAR: LFMU 171000Z AUTO 28009KT 240V330 CAVOK 31/12 Q1013 NOSIG

Hora: 12:35 (10:35 UTC)

Pronòstic

L'informe es va fer fa 2 hores i 35 minuts, a les 08:00 UTC
Pronòstic vàlid del 17 a les 09 UTC al 18 a les 09 UTC
Vent 10 kt del Oest/Nord-Oest
Visibilitat 10 km o més
sense núvols per sota de 1500 mi sense presència de cumulonimbus.
Temporalment
l' 17 a les 11 UTC al 17 a les 13 UTC
Vent 5 kt del Sud
Evolucionant progressivament
l' 17 a les 13 UTC al 17 a les 15 UTC
Vent 15 kt del Oest

TAF: LFMU 170800Z 1709/1809 29010KT CAVOK TEMPO 1711/1713 18005KT BECMG 1713/1715 28015KT

Observacions i pronòstics meteorològics de més de 4000 aeroports (METAR i TAF).

Les estacions disponibles són els punts grocs i vermells al mapa.

Posi el ratolí al punt desitjat per veure el nom de l'estació.

Feu clic per veure les observacions i els pronòstics meteorològics.

Per canviar el mapa: feu clic els botons verds amb una creu de color negre per apropar; al botó verd amb un guió per allunyar la imatge; o en les fletxes verdes per a mapes adjacents.


METAR-TAF: